sensor_id;sensor_type;location;lat;lon;timestamp;pressure;altitude;pressure_sealevel;temperature;humidity
65666;BME280;52365;47.464;18.976;2023-04-23T00:00:03;99582.16;;;11.68;56.75
65666;BME280;52365;47.464;18.976;2023-04-23T00:00:40;99577.03;;;11.16;58.33
65666;BME280;52365;47.464;18.976;2023-04-23T00:01:17;99577.78;;;10.93;59.28
65666;BME280;52365;47.464;18.976;2023-04-23T00:01:55;99575.66;;;10.97;59.31
65666;BME280;52365;47.464;18.976;2023-04-23T00:02:33;99569.31;;;10.85;59.79
65666;BME280;52365;47.464;18.976;2023-04-23T00:03:12;99575.97;;;10.99;59.53
65666;BME280;52365;47.464;18.976;2023-04-23T00:03:49;99575.25;;;11.13;59.25
65666;BME280;52365;47.464;18.976;2023-04-23T00:04:27;99571.00;;;11.21;58.93
65666;BME280;52365;47.464;18.976;2023-04-23T00:05:04;99570.59;;;11.14;59.00
65666;BME280;52365;47.464;18.976;2023-04-23T00:05:42;99576.97;;;11.25;58.78
65666;BME280;52365;47.464;18.976;2023-04-23T00:06:20;99569.81;;;11.37;58.43
65666;BME280;52365;47.464;18.976;2023-04-23T00:06:57;99579.84;;;11.37;58.28
65666;BME280;52365;47.464;18.976;2023-04-23T00:07:35;99569.69;;;11.17;58.82
65666;BME280;52365;47.464;18.976;2023-04-23T00:08:11;99584.19;;;11.19;58.97
65666;BME280;52365;47.464;18.976;2023-04-23T00:08:50;99573.87;;;11.18;59.07
65666;BME280;52365;47.464;18.976;2023-04-23T00:09:29;99577.22;;;11.13;59.26
65666;BME280;52365;47.464;18.976;2023-04-23T00:10:07;99569.94;;;11.04;59.68
65666;BME280;52365;47.464;18.976;2023-04-23T00:10:44;99572.19;;;10.81;59.86
65666;BME280;52365;47.464;18.976;2023-04-23T00:11:20;99569.72;;;10.69;60.63
65666;BME280;52365;47.464;18.976;2023-04-23T00:11:57;99572.53;;;10.98;59.84
65666;BME280;52365;47.464;18.976;2023-04-23T00:12:34;99564.56;;;10.80;60.40
65666;BME280;52365;47.464;18.976;2023-04-23T00:13:11;99569.66;;;10.54;61.35
65666;BME280;52365;47.464;18.976;2023-04-23T00:13:47;99570.75;;;10.71;61.02
65666;BME280;52365;47.464;18.976;2023-04-23T00:14:24;99571.47;;;10.96;60.22
65666;BME280;52365;47.464;18.976;2023-04-23T00:15:02;99574.47;;;10.98;59.90
65666;BME280;52365;47.464;18.976;2023-04-23T00:15:39;99572.69;;;10.71;60.83
65666;BME280;52365;47.464;18.976;2023-04-23T00:16:18;99578.25;;;10.67;61.17
65666;BME280;52365;47.464;18.976;2023-04-23T00:16:54;99575.72;;;10.64;61.51
65666;BME280;52365;47.464;18.976;2023-04-23T00:17:30;99568.13;;;10.53;61.93
65666;BME280;52365;47.464;18.976;2023-04-23T00:18:06;99572.19;;;10.81;61.30
65666;BME280;52365;47.464;18.976;2023-04-23T00:18:42;99575.28;;;10.89;60.64
65666;BME280;52365;47.464;18.976;2023-04-23T00:19:18;99573.03;;;10.64;61.15
65666;BME280;52365;47.464;18.976;2023-04-23T00:19:55;99557.09;;;10.99;60.66
65666;BME280;52365;47.464;18.976;2023-04-23T00:20:31;99563.16;;;11.08;59.82
65666;BME280;52365;47.464;18.976;2023-04-23T00:21:09;99559.63;;;11.17;59.29
65666;BME280;52365;47.464;18.976;2023-04-23T00:21:45;99574.47;;;10.98;59.66
65666;BME280;52365;47.464;18.976;2023-04-23T00:22:21;99572.28;;;10.87;60.25
65666;BME280;52365;47.464;18.976;2023-04-23T00:22:57;99574.00;;;10.99;60.05
65666;BME280;52365;47.464;18.976;2023-04-23T00:23:33;99573.47;;;11.10;59.53
65666;BME280;52365;47.464;18.976;2023-04-23T00:24:09;99569.47;;;11.05;59.38
65666;BME280;52365;47.464;18.976;2023-04-23T00:24:45;99568.00;;;10.80;59.92
65666;BME280;52365;47.464;18.976;2023-04-23T00:25:21;99568.91;;;10.77;60.23
65666;BME280;52365;47.464;18.976;2023-04-23T00:25:57;99569.94;;;10.80;60.55
65666;BME280;52365;47.464;18.976;2023-04-23T00:26:33;99575.09;;;10.93;60.33
65666;BME280;52365;47.464;18.976;2023-04-23T00:27:10;99568.44;;;11.03;59.66
65666;BME280;52365;47.464;18.976;2023-04-23T00:27:46;99571.78;;;10.74;60.30
65666;BME280;52365;47.464;18.976;2023-04-23T00:28:22;99572.56;;;10.41;61.97
65666;BME280;52365;47.464;18.976;2023-04-23T00:28:58;99568.66;;;10.66;61.59
65666;BME280;52365;47.464;18.976;2023-04-23T00:29:34;99563.62;;;10.83;60.67
65666;BME280;52365;47.464;18.976;2023-04-23T00:30:10;99565.56;;;10.82;60.04
65666;BME280;52365;47.464;18.976;2023-04-23T00:30:47;99574.63;;;10.70;60.99
65666;BME280;52365;47.464;18.976;2023-04-23T00:31:23;99568.56;;;10.27;62.32
65666;BME280;52365;47.464;18.976;2023-04-23T00:32:01;99564.53;;;10.32;62.81
65666;BME280;52365;47.464;18.976;2023-04-23T00:32:38;99574.47;;;10.50;62.38
65666;BME280;52365;47.464;18.976;2023-04-23T00:33:14;99561.03;;;10.89;61.50
65666;BME280;52365;47.464;18.976;2023-04-23T00:33:50;99563.56;;;11.31;59.74
65666;BME280;52365;47.464;18.976;2023-04-23T00:34:26;99561.53;;;11.26;59.02
65666;BME280;52365;47.464;18.976;2023-04-23T00:35:02;99567.19;;;10.89;59.79
65666;BME280;52365;47.464;18.976;2023-04-23T00:35:39;99565.06;;;10.69;60.98
65666;BME280;52365;47.464;18.976;2023-04-23T00:36:15;99569.59;;;10.63;61.39
65666;BME280;52365;47.464;18.976;2023-04-23T00:36:51;99560.50;;;10.27;62.27
65666;BME280;52365;47.464;18.976;2023-04-23T00:37:27;99562.53;;;10.42;62.37
65666;BME280;52365;47.464;18.976;2023-04-23T00:38:03;99562.38;;;10.45;61.95
65666;BME280;52365;47.464;18.976;2023-04-23T00:38:39;99564.06;;;10.33;62.23
65666;BME280;52365;47.464;18.976;2023-04-23T00:39:16;99563.25;;;10.42;62.14
65666;BME280;52365;47.464;18.976;2023-04-23T00:39:52;99560.66;;;10.15;62.88
65666;BME280;52365;47.464;18.976;2023-04-23T00:40:28;99564.22;;;10.30;62.96
65666;BME280;52365;47.464;18.976;2023-04-23T00:41:04;99563.25;;;10.42;62.35
65666;BME280;52365;47.464;18.976;2023-04-23T00:41:40;99558.63;;;10.43;62.15
65666;BME280;52365;47.464;18.976;2023-04-23T00:42:17;99564.38;;;10.59;61.35
65666;BME280;52365;47.464;18.976;2023-04-23T00:42:53;99561.34;;;10.33;61.60
65666;BME280;52365;47.464;18.976;2023-04-23T00:43:31;99556.88;;;10.30;61.95
65666;BME280;52365;47.464;18.976;2023-04-23T00:44:07;99566.66;;;10.52;61.69
65666;BME280;52365;47.464;18.976;2023-04-23T00:44:48;99561.47;;;10.72;61.19
65666;BME280;52365;47.464;18.976;2023-04-23T00:45:25;99559.97;;;10.71;61.07
65666;BME280;52365;47.464;18.976;2023-04-23T00:46:01;99556.16;;;11.02;60.48
65666;BME280;52365;47.464;18.976;2023-04-23T00:46:38;99552.59;;;10.96;59.64
65666;BME280;52365;47.464;18.976;2023-04-23T00:47:14;99565.16;;;10.51;60.96
65666;BME280;52365;47.464;18.976;2023-04-23T00:47:52;99560.19;;;10.25;61.97
65666;BME280;52365;47.464;18.976;2023-04-23T00:48:28;99555.94;;;10.67;61.26
65666;BME280;52365;47.464;18.976;2023-04-23T00:49:04;99558.06;;;10.87;60.63
65666;BME280;52365;47.464;18.976;2023-04-23T00:49:41;99563.28;;;10.90;60.62
65666;BME280;52365;47.464;18.976;2023-04-23T00:50:17;99557.84;;;11.14;59.61
65666;BME280;52365;47.464;18.976;2023-04-23T00:51:04;99562.12;;;10.82;59.89
65666;BME280;52365;47.464;18.976;2023-04-23T00:51:40;99560.13;;;10.68;60.36
65666;BME280;52365;47.464;18.976;2023-04-23T00:52:16;99567.56;;;10.49;61.18
65666;BME280;52365;47.464;18.976;2023-04-23T00:52:52;99560.34;;;10.55;61.33
65666;BME280;52365;47.464;18.976;2023-04-23T00:53:28;99567.06;;;10.59;61.44
65666;BME280;52365;47.464;18.976;2023-04-23T00:54:04;99563.00;;;10.64;61.20
65666;BME280;52365;47.464;18.976;2023-04-23T00:54:40;99559.78;;;10.51;61.51
65666;BME280;52365;47.464;18.976;2023-04-23T00:55:17;99563.53;;;10.44;61.77
65666;BME280;52365;47.464;18.976;2023-04-23T00:55:56;99572.13;;;10.33;62.49
65666;BME280;52365;47.464;18.976;2023-04-23T00:56:32;99577.56;;;10.15;63.16
65666;BME280;52365;47.464;18.976;2023-04-23T00:57:09;99570.25;;;10.06;63.41
65666;BME280;52365;47.464;18.976;2023-04-23T00:57:45;99562.06;;;10.01;63.91
65666;BME280;52365;47.464;18.976;2023-04-23T00:58:22;99563.41;;;10.05;64.03
65666;BME280;52365;47.464;18.976;2023-04-23T00:58:58;99559.19;;;10.04;64.22
65666;BME280;52365;47.464;18.976;2023-04-23T00:59:37;99568.63;;;10.00;64.34
65666;BME280;52365;47.464;18.976;2023-04-23T01:00:13;99562.31;;;10.12;63.95
65666;BME280;52365;47.464;18.976;2023-04-23T01:00:50;99561.13;;;10.04;64.03
65666;BME280;52365;47.464;18.976;2023-04-23T01:01:27;99561.25;;;10.19;63.71
65666;BME280;52365;47.464;18.976;2023-04-23T01:02:03;99563.78;;;10.13;63.91
65666;BME280;52365;47.464;18.976;2023-04-23T01:02:40;99557.47;;;9.83;64.58
65666;BME280;52365;47.464;18.976;2023-04-23T01:03:19;99556.69;;;9.92;64.58
65666;BME280;52365;47.464;18.976;2023-04-23T01:03:56;99560.03;;;10.29;63.67
65666;BME280;52365;47.464;18.976;2023-04-23T01:04:34;99560.84;;;10.44;62.52
65666;BME280;52365;47.464;18.976;2023-04-23T01:05:13;99564.31;;;10.36;62.66
65666;BME280;52365;47.464;18.976;2023-04-23T01:05:50;99569.97;;;10.04;63.87
65666;BME280;52365;47.464;18.976;2023-04-23T01:06:27;99562.31;;;10.12;63.95
65666;BME280;52365;47.464;18.976;2023-04-23T01:07:03;99564.22;;;10.30;63.65
65666;BME280;52365;47.464;18.976;2023-04-23T01:07:39;99564.69;;;10.52;62.63
65666;BME280;52365;47.464;18.976;2023-04-23T01:08:17;99556.25;;;10.36;62.33
65666;BME280;52365;47.464;18.976;2023-04-23T01:08:53;99558.56;;;10.19;63.03
65666;BME280;52365;47.464;18.976;2023-04-23T01:09:29;99560.47;;;10.18;63.14
65666;BME280;52365;47.464;18.976;2023-04-23T01:10:07;99557.94;;;10.24;63.00
65666;BME280;52365;47.464;18.976;2023-04-23T01:10:44;99557.09;;;10.08;63.83
65666;BME280;52365;47.464;18.976;2023-04-23T01:11:22;99560.47;;;10.18;63.43
65666;BME280;52365;47.464;18.976;2023-04-23T01:11:59;99560.03;;;10.20;63.14
65666;BME280;52365;47.464;18.976;2023-04-23T01:12:37;99561.09;;;10.13;63.05
65666;BME280;52365;47.464;18.976;2023-04-23T01:13:13;99553.97;;;10.10;63.56
65666;BME280;52365;47.464;18.976;2023-04-23T01:13:49;99564.84;;;10.16;63.48
65666;BME280;52365;47.464;18.976;2023-04-23T01:14:25;99552.78;;;10.02;63.49
65666;BME280;52365;47.464;18.976;2023-04-23T01:15:03;99547.06;;;10.09;63.83
65666;BME280;52365;47.464;18.976;2023-04-23T01:15:40;99549.63;;;10.03;64.00
65666;BME280;52365;47.464;18.976;2023-04-23T01:16:16;99551.63;;;9.84;64.34
65666;BME280;52365;47.464;18.976;2023-04-23T01:16:52;99550.28;;;9.89;64.41
65666;BME280;52365;47.464;18.976;2023-04-23T01:17:29;99557.50;;;10.25;63.61
65666;BME280;52365;47.464;18.976;2023-04-23T01:18:05;99555.97;;;10.33;62.63
65666;BME280;52365;47.464;18.976;2023-04-23T01:18:42;99554.75;;;10.34;62.45
65666;BME280;52365;47.464;18.976;2023-04-23T01:19:19;99554.94;;;10.22;62.43
65666;BME280;52365;47.464;18.976;2023-04-23T01:19:55;99559.81;;;9.99;63.35
65666;BME280;52365;47.464;18.976;2023-04-23T01:20:32;99553.84;;;9.95;63.97
65666;BME280;52365;47.464;18.976;2023-04-23T01:21:09;99555.38;;;9.78;64.28
65666;BME280;52365;47.464;18.976;2023-04-23T01:21:48;99557.75;;;9.94;64.15
65666;BME280;52365;47.464;18.976;2023-04-23T01:22:24;99551.19;;;9.86;64.27
65666;BME280;52365;47.464;18.976;2023-04-23T01:23:04;99559.72;;;9.84;64.72
65666;BME280;52365;47.464;18.976;2023-04-23T01:23:40;99556.47;;;10.14;63.92
65666;BME280;52365;47.464;18.976;2023-04-23T01:24:16;99555.06;;;10.37;63.22
65666;BME280;52365;47.464;18.976;2023-04-23T01:24:53;99554.97;;;10.55;61.99
65666;BME280;52365;47.464;18.976;2023-04-23T01:25:29;99551.66;;;9.75;64.04
65666;BME280;52365;47.464;18.976;2023-04-23T01:26:05;99559.50;;;10.06;64.32
65666;BME280;52365;47.464;18.976;2023-04-23T01:26:42;99553.22;;;10.43;62.90
65666;BME280;52365;47.464;18.976;2023-04-23T01:27:18;99553.28;;;10.33;62.67
65666;BME280;52365;47.464;18.976;2023-04-23T01:27:55;99551.59;;;10.69;61.86
65666;BME280;52365;47.464;18.976;2023-04-23T01:28:32;99557.19;;;10.23;62.20
65666;BME280;52365;47.464;18.976;2023-04-23T01:29:09;99554.75;;;10.34;62.78
65666;BME280;52365;47.464;18.976;2023-04-23T01:29:46;99554.91;;;10.31;62.71
65666;BME280;52365;47.464;18.976;2023-04-23T01:30:25;99551.66;;;10.18;62.98
65666;BME280;52365;47.464;18.976;2023-04-23T01:31:02;99553.16;;;10.28;63.08
65666;BME280;52365;47.464;18.976;2023-04-23T01:31:39;99551.50;;;10.21;62.75
65666;BME280;52365;47.464;18.976;2023-04-23T01:32:16;99560.41;;;10.03;63.27
65666;BME280;52365;47.464;18.976;2023-04-23T01:32:53;99553.81;;;10.04;63.54
65666;BME280;52365;47.464;18.976;2023-04-23T01:33:30;99554.19;;;10.21;63.04
65666;BME280;52365;47.464;18.976;2023-04-23T01:34:07;99556.31;;;10.17;62.79
65666;BME280;52365;47.464;18.976;2023-04-23T01:34:45;99550.84;;;10.36;62.53
65666;BME280;52365;47.464;18.976;2023-04-23T01:35:23;99549.31;;;10.11;63.05
65666;BME280;52365;47.464;18.976;2023-04-23T01:35:59;99554.13;;;10.06;63.25
65666;BME280;52365;47.464;18.976;2023-04-23T01:36:36;99552.63;;;9.96;63.81
65666;BME280;52365;47.464;18.976;2023-04-23T01:37:12;99553.47;;;9.69;64.77
65666;BME280;52365;47.464;18.976;2023-04-23T01:37:50;99549.25;;;9.77;64.87
65666;BME280;52365;47.464;18.976;2023-04-23T01:38:29;99556.66;;;10.10;64.17
65666;BME280;52365;47.464;18.976;2023-04-23T01:39:06;99553.97;;;10.43;62.96
65666;BME280;52365;47.464;18.976;2023-04-23T01:39:43;99543.56;;;10.60;61.99
65666;BME280;52365;47.464;18.976;2023-04-23T01:40:20;99550.69;;;10.72;60.96
65666;BME280;52365;47.464;18.976;2023-04-23T01:40:56;99553.75;;;10.32;61.55
65666;BME280;52365;47.464;18.976;2023-04-23T01:41:33;99551.50;;;10.30;62.09
65666;BME280;52365;47.464;18.976;2023-04-23T01:42:10;99550.75;;;10.30;62.13
65666;BME280;52365;47.464;18.976;2023-04-23T01:42:47;99550.97;;;10.08;62.61
65666;BME280;52365;47.464;18.976;2023-04-23T01:43:24;99551.31;;;10.01;63.23
65666;BME280;52365;47.464;18.976;2023-04-23T01:44:00;99550.00;;;9.78;64.10
65666;BME280;52365;47.464;18.976;2023-04-23T01:44:36;99549.22;;;9.87;64.09
65666;BME280;52365;47.464;18.976;2023-04-23T01:45:12;99544.31;;;9.85;64.09
65666;BME280;52365;47.464;18.976;2023-04-23T01:45:48;99550.81;;;9.51;64.85
65666;BME280;52365;47.464;18.976;2023-04-23T01:46:25;99550.22;;;9.47;65.47
65666;BME280;52365;47.464;18.976;2023-04-23T01:47:01;99550.22;;;9.38;65.90
65666;BME280;52365;47.464;18.976;2023-04-23T01:47:37;99549.31;;;9.59;65.60
65666;BME280;52365;47.464;18.976;2023-04-23T01:48:13;99543.78;;;9.63;65.21
65666;BME280;52365;47.464;18.976;2023-04-23T01:48:50;99551.22;;;9.68;65.18
65666;BME280;52365;47.464;18.976;2023-04-23T01:49:26;99546.47;;;9.63;65.40
65666;BME280;52365;47.464;18.976;2023-04-23T01:50:02;99557.69;;;9.33;66.24
65666;BME280;52365;47.464;18.976;2023-04-23T01:50:40;99545.31;;;9.18;66.98
65666;BME280;52365;47.464;18.976;2023-04-23T01:51:17;99544.06;;;9.55;66.31
65666;BME280;52365;47.464;18.976;2023-04-23T01:51:53;99547.47;;;9.65;65.46
65666;BME280;52365;47.464;18.976;2023-04-23T01:52:29;99546.03;;;9.46;65.79
65666;BME280;52365;47.464;18.976;2023-04-23T01:53:05;99553.03;;;9.43;66.24
65666;BME280;52365;47.464;18.976;2023-04-23T01:53:41;99547.66;;;9.43;66.17
65666;BME280;52365;47.464;18.976;2023-04-23T01:54:17;99543.78;;;9.26;66.33
65666;BME280;52365;47.464;18.976;2023-04-23T01:54:54;99549.59;;;9.70;65.79
65666;BME280;52365;47.464;18.976;2023-04-23T01:55:30;99545.38;;;9.69;65.15
65666;BME280;52365;47.464;18.976;2023-04-23T01:56:08;99540.91;;;9.75;64.97
65666;BME280;52365;47.464;18.976;2023-04-23T01:56:45;99541.53;;;9.52;65.39
65666;BME280;52365;47.464;18.976;2023-04-23T01:57:21;99546.00;;;9.55;65.76
65666;BME280;52365;47.464;18.976;2023-04-23T01:58:01;99545.28;;;9.54;65.77
65666;BME280;52365;47.464;18.976;2023-04-23T01:58:37;99551.41;;;9.46;65.97
65666;BME280;52365;47.464;18.976;2023-04-23T01:59:13;99545.91;;;9.40;66.22
65666;BME280;52365;47.464;18.976;2023-04-23T01:59:49;99548.25;;;9.47;66.05
65666;BME280;52365;47.464;18.976;2023-04-23T02:00:25;99548.69;;;9.55;65.85
65666;BME280;52365;47.464;18.976;2023-04-23T02:01:01;99534.47;;;9.73;65.27
65666;BME280;52365;47.464;18.976;2023-04-23T02:01:45;99544.31;;;9.85;64.58
65666;BME280;52365;47.464;18.976;2023-04-23T02:02:21;99549.00;;;9.57;64.94
65666;BME280;52365;47.464;18.976;2023-04-23T02:02:57;99547.25;;;9.36;66.10
65666;BME280;52365;47.464;18.976;2023-04-23T02:03:33;99549.00;;;9.48;66.03
65666;BME280;52365;47.464;18.976;2023-04-23T02:04:11;99539.56;;;9.71;65.31
65666;BME280;52365;47.464;18.976;2023-04-23T02:04:48;99541.94;;;9.69;64.72
65666;BME280;52365;47.464;18.976;2023-04-23T02:05:27;99546.31;;;9.48;65.08
65666;BME280;52365;47.464;18.976;2023-04-23T02:06:03;99540.06;;;9.32;66.37
65666;BME280;52365;47.464;18.976;2023-04-23T02:06:41;99538.50;;;9.68;65.79
65666;BME280;52365;47.464;18.976;2023-04-23T02:07:18;99544.78;;;9.65;64.89
65666;BME280;52365;47.464;18.976;2023-04-23T02:07:54;99545.44;;;9.42;65.87
65666;BME280;52365;47.464;18.976;2023-04-23T02:08:30;99548.69;;;9.55;65.67
65666;BME280;52365;47.464;18.976;2023-04-23T02:09:07;99540.16;;;9.56;65.71
65666;BME280;52365;47.464;18.976;2023-04-23T02:09:43;99548.59;;;9.40;65.64
65666;BME280;52365;47.464;18.976;2023-04-23T02:10:19;99547.50;;;9.56;65.63
65666;BME280;52365;47.464;18.976;2023-04-23T02:10:55;99549.56;;;9.79;64.84
65666;BME280;52365;47.464;18.976;2023-04-23T02:11:32;99545.25;;;10.24;63.53
65666;BME280;52365;47.464;18.976;2023-04-23T02:12:08;99544.97;;;10.04;63.14
65666;BME280;52365;47.464;18.976;2023-04-23T02:12:44;99542.88;;;9.56;64.37
65666;BME280;52365;47.464;18.976;2023-04-23T02:13:20;99542.59;;;9.45;65.25
65666;BME280;52365;47.464;18.976;2023-04-23T02:13:56;99543.16;;;9.68;64.87
65666;BME280;52365;47.464;18.976;2023-04-23T02:14:32;99543.44;;;9.79;64.30
65666;BME280;52365;47.464;18.976;2023-04-23T02:15:09;99539.28;;;9.59;64.53
65666;BME280;52365;47.464;18.976;2023-04-23T02:15:45;99534.78;;;9.56;65.18
65666;BME280;52365;47.464;18.976;2023-04-23T02:16:21;99539.75;;;9.30;66.06
65666;BME280;52365;47.464;18.976;2023-04-23T02:16:59;99537.97;;;9.37;66.13
65666;BME280;52365;47.464;18.976;2023-04-23T02:17:35;99536.87;;;9.71;65.37
65666;BME280;52365;47.464;18.976;2023-04-23T02:18:11;99535.53;;;9.66;64.44
65666;BME280;52365;47.464;18.976;2023-04-23T02:18:47;99534.22;;;9.62;64.65
65666;BME280;52365;47.464;18.976;2023-04-23T02:19:23;99535.37;;;9.79;64.32
65666;BME280;52365;47.464;18.976;2023-04-23T02:20:00;99537.75;;;9.77;64.23
65666;BME280;52365;47.464;18.976;2023-04-23T02:20:36;99539.00;;;9.30;65.18
65666;BME280;52365;47.464;18.976;2023-04-23T02:21:15;99535.91;;;9.22;66.21
65666;BME280;52365;47.464;18.976;2023-04-23T02:21:52;99544.25;;;9.15;66.59
65666;BME280;52365;47.464;18.976;2023-04-23T02:22:28;99535.59;;;9.02;66.99
65666;BME280;52365;47.464;18.976;2023-04-23T02:23:05;99537.69;;;8.89;67.53
65666;BME280;52365;47.464;18.976;2023-04-23T02:23:41;99532.91;;;8.93;67.43
65666;BME280;52365;47.464;18.976;2023-04-23T02:24:18;99533.78;;;9.08;67.32
65666;BME280;52365;47.464;18.976;2023-04-23T02:24:54;99533.78;;;9.17;66.77
65666;BME280;52365;47.464;18.976;2023-04-23T02:25:30;99536.50;;;9.26;66.27
65666;BME280;52365;47.464;18.976;2023-04-23T02:26:07;99544.97;;;9.34;65.76
65666;BME280;52365;47.464;18.976;2023-04-23T02:26:43;99530.94;;;9.21;66.05
65666;BME280;52365;47.464;18.976;2023-04-23T02:27:20;99534.09;;;9.19;66.03
65666;BME280;52365;47.464;18.976;2023-04-23T02:27:56;99530.22;;;9.20;66.20
65666;BME280;52365;47.464;18.976;2023-04-23T02:28:34;99539.59;;;9.34;65.76
65666;BME280;52365;47.464;18.976;2023-04-23T02:29:10;99532.47;;;9.31;65.53
65666;BME280;52365;47.464;18.976;2023-04-23T02:29:47;99528.09;;;9.33;65.67
65666;BME280;52365;47.464;18.976;2023-04-23T02:30:23;99530.06;;;9.33;65.43
65666;BME280;52365;47.464;18.976;2023-04-23T02:31:00;99536.94;;;9.25;65.93
65666;BME280;52365;47.464;18.976;2023-04-23T02:31:36;99532.75;;;9.15;66.45
65666;BME280;52365;47.464;18.976;2023-04-23T02:32:12;99529.44;;;9.38;66.36
65666;BME280;52365;47.464;18.976;2023-04-23T02:32:48;99527.50;;;9.57;65.07
65666;BME280;52365;47.464;18.976;2023-04-23T02:33:24;99531.41;;;9.28;65.71
65666;BME280;52365;47.464;18.976;2023-04-23T02:34:01;99529.75;;;9.49;65.44
65666;BME280;52365;47.464;18.976;2023-04-23T02:34:37;99536.50;;;9.87;64.56
65666;BME280;52365;47.464;18.976;2023-04-23T02:35:13;99533.94;;;10.02;63.30
65666;BME280;52365;47.464;18.976;2023-04-23T02:35:49;99530.63;;;9.46;64.19
65666;BME280;52365;47.464;18.976;2023-04-23T02:36:25;99532.28;;;9.44;65.01
65666;BME280;52365;47.464;18.976;2023-04-23T02:37:03;99531.53;;;9.43;65.30
65666;BME280;52365;47.464;18.976;2023-04-23T02:37:39;99531.09;;;9.17;65.99
65666;BME280;52365;47.464;18.976;2023-04-23T02:38:16;99532.16;;;9.29;66.12
65666;BME280;52365;47.464;18.976;2023-04-23T02:38:52;99530.06;;;9.15;66.26
65666;BME280;52365;47.464;18.976;2023-04-23T02:39:28;99531.56;;;8.97;67.14
65666;BME280;52365;47.464;18.976;2023-04-23T02:40:05;99531.41;;;9.10;66.98
65666;BME280;52365;47.464;18.976;2023-04-23T02:40:41;99530.81;;;9.06;66.92
65666;BME280;52365;47.464;18.976;2023-04-23T02:41:18;99529.31;;;9.23;66.41
65666;BME280;52365;47.464;18.976;2023-04-23T02:41:54;99528.59;;;9.04;66.56
65666;BME280;52365;47.464;18.976;2023-04-23T02:42:31;99528.87;;;9.25;66.47
65666;BME280;52365;47.464;18.976;2023-04-23T02:43:07;99535.75;;;9.35;65.92
65666;BME280;52365;47.464;18.976;2023-04-23T02:43:43;99535.28;;;9.00;66.84
65666;BME280;52365;47.464;18.976;2023-04-23T02:44:19;99528.41;;;8.90;67.36
65666;BME280;52365;47.464;18.976;2023-04-23T02:44:55;99522.16;;;8.83;67.46
65666;BME280;52365;47.464;18.976;2023-04-23T02:45:31;99533.19;;;8.86;67.49
65666;BME280;52365;47.464;18.976;2023-04-23T02:46:07;99527.53;;;8.93;67.49
65666;BME280;52365;47.464;18.976;2023-04-23T02:46:44;99521.84;;;8.91;67.47
65666;BME280;52365;47.464;18.976;2023-04-23T02:47:20;99530.97;;;9.02;67.41
65666;BME280;52365;47.464;18.976;2023-04-23T02:47:57;99526.91;;;9.25;66.53
65666;BME280;52365;47.464;18.976;2023-04-23T02:48:38;99526.31;;;9.21;66.06
65666;BME280;52365;47.464;18.976;2023-04-23T02:49:14;99525.59;;;9.02;66.71
65666;BME280;52365;47.464;18.976;2023-04-23T02:49:50;99526.03;;;9.01;66.92
65666;BME280;52365;47.464;18.976;2023-04-23T02:50:27;99526.03;;;8.92;67.40
65666;BME280;52365;47.464;18.976;2023-04-23T02:51:03;99522.16;;;8.74;67.75
65666;BME280;52365;47.464;18.976;2023-04-23T02:51:39;99530.50;;;8.76;68.22
65666;BME280;52365;47.464;18.976;2023-04-23T02:52:15;99528.06;;;8.60;68.40
65666;BME280;52365;47.464;18.976;2023-04-23T02:52:51;99526.00;;;8.73;68.29
65666;BME280;52365;47.464;18.976;2023-04-23T02:53:27;99521.53;;;8.79;67.84
65666;BME280;52365;47.464;18.976;2023-04-23T02:54:03;99525.56;;;8.66;68.18
65666;BME280;52365;47.464;18.976;2023-04-23T02:54:40;99521.97;;;8.78;68.13
65666;BME280;52365;47.464;18.976;2023-04-23T02:55:16;99520.34;;;8.71;68.30
65666;BME280;52365;47.464;18.976;2023-04-23T02:55:53;99529.28;;;8.77;68.12
65666;BME280;52365;47.464;18.976;2023-04-23T02:56:29;99526.91;;;8.70;68.51
65666;BME280;52365;47.464;18.976;2023-04-23T02:57:05;99521.69;;;8.76;68.27
65666;BME280;52365;47.464;18.976;2023-04-23T02:57:41;99523.03;;;8.71;68.35
65666;BME280;52365;47.464;18.976;2023-04-23T02:58:17;99522.44;;;8.76;68.38
65666;BME280;52365;47.464;18.976;2023-04-23T02:58:53;99519.59;;;8.98;67.64
65666;BME280;52365;47.464;18.976;2023-04-23T02:59:29;99512.28;;;8.90;67.54
65666;BME280;52365;47.464;18.976;2023-04-23T03:00:06;99516.47;;;8.81;68.10
65666;BME280;52365;47.464;18.976;2023-04-23T03:00:42;99524.47;;;8.54;68.90
65666;BME280;52365;47.464;18.976;2023-04-23T03:01:18;99523.50;;;8.79;68.63
65666;BME280;52365;47.464;18.976;2023-04-23T03:01:54;99513.63;;;9.13;67.59
65666;BME280;52365;47.464;18.976;2023-04-23T03:02:30;99517.38;;;9.06;66.63
65666;BME280;52365;47.464;18.976;2023-04-23T03:03:06;99509.75;;;8.95;66.64
65666;BME280;52365;47.464;18.976;2023-04-23T03:03:42;99513.91;;;8.69;67.90
65666;BME280;52365;47.464;18.976;2023-04-23T03:04:18;99516.56;;;8.60;68.69
65666;BME280;52365;47.464;18.976;2023-04-23T03:04:55;99516.91;;;8.71;68.46
65666;BME280;52365;47.464;18.976;2023-04-23T03:05:31;99512.44;;;8.86;67.98
65666;BME280;52365;47.464;18.976;2023-04-23T03:06:07;99523.16;;;8.77;67.78
65666;BME280;52365;47.464;18.976;2023-04-23T03:06:43;99520.00;;;8.60;68.08
65666;BME280;52365;47.464;18.976;2023-04-23T03:07:20;99512.56;;;8.64;68.21
65666;BME280;52365;47.464;18.976;2023-04-23T03:07:56;99521.53;;;8.70;68.03
65666;BME280;52365;47.464;18.976;2023-04-23T03:08:32;99513.91;;;8.69;68.01
65666;BME280;52365;47.464;18.976;2023-04-23T03:09:08;99521.06;;;8.63;68.15
65666;BME280;52365;47.464;18.976;2023-04-23T03:09:45;99513.00;;;8.53;68.56
65666;BME280;52365;47.464;18.976;2023-04-23T03:10:21;99515.81;;;8.50;68.77
65666;BME280;52365;47.464;18.976;2023-04-23T03:10:57;99510.28;;;8.44;69.16
65666;BME280;52365;47.464;18.976;2023-04-23T03:11:33;99519.56;;;8.43;69.35
65666;BME280;52365;47.464;18.976;2023-04-23T03:12:09;99516.09;;;8.43;69.50
65666;BME280;52365;47.464;18.976;2023-04-23T03:12:45;99510.03;;;8.61;69.15